sensor_id;sensor_type;location;lat;lon;timestamp;P1;durP1;ratioP1;P2;durP2;ratioP2
65045;SDS011;54657;52.022;5.534;2022-11-20T00:00:34;9.38;;;6.28;;
65045;SDS011;54657;52.022;5.534;2022-11-20T00:03:00;10.70;;;6.55;;
65045;SDS011;54657;52.022;5.534;2022-11-20T00:05:25;10.75;;;7.13;;
65045;SDS011;54657;52.022;5.534;2022-11-20T00:07:51;12.50;;;7.70;;
65045;SDS011;54657;52.022;5.534;2022-11-20T00:10:16;10.30;;;6.82;;
65045;SDS011;54657;52.022;5.534;2022-11-20T00:12:42;9.63;;;6.63;;
65045;SDS011;54657;52.022;5.534;2022-11-20T00:15:07;10.77;;;6.70;;
65045;SDS011;54657;52.022;5.534;2022-11-20T00:17:33;12.23;;;7.40;;
65045;SDS011;54657;52.022;5.534;2022-11-20T00:19:59;10.27;;;7.45;;
65045;SDS011;54657;52.022;5.534;2022-11-20T00:22:24;15.68;;;7.22;;
65045;SDS011;54657;52.022;5.534;2022-11-20T00:24:50;15.05;;;8.65;;
65045;SDS011;54657;52.022;5.534;2022-11-20T00:27:15;13.13;;;8.38;;
65045;SDS011;54657;52.022;5.534;2022-11-20T00:29:41;14.55;;;8.02;;
65045;SDS011;54657;52.022;5.534;2022-11-20T00:32:07;13.93;;;9.57;;
65045;SDS011;54657;52.022;5.534;2022-11-20T00:34:32;12.75;;;7.97;;
65045;SDS011;54657;52.022;5.534;2022-11-20T00:36:58;9.75;;;6.35;;
65045;SDS011;54657;52.022;5.534;2022-11-20T00:39:23;8.45;;;6.15;;
65045;SDS011;54657;52.022;5.534;2022-11-20T00:41:49;10.43;;;6.72;;
65045;SDS011;54657;52.022;5.534;2022-11-20T00:44:15;8.48;;;6.03;;
65045;SDS011;54657;52.022;5.534;2022-11-20T00:46:40;11.65;;;6.80;;
65045;SDS011;54657;52.022;5.534;2022-11-20T00:49:06;10.57;;;6.57;;
65045;SDS011;54657;52.022;5.534;2022-11-20T00:51:31;10.23;;;5.95;;
65045;SDS011;54657;52.022;5.534;2022-11-20T00:53:57;9.57;;;6.68;;
65045;SDS011;54657;52.022;5.534;2022-11-20T00:56:24;10.02;;;7.03;;
65045;SDS011;54657;52.022;5.534;2022-11-20T00:58:50;11.23;;;6.97;;
65045;SDS011;54657;52.022;5.534;2022-11-20T01:01:20;11.00;;;6.55;;
65045;SDS011;54657;52.022;5.534;2022-11-20T01:03:49;10.90;;;7.30;;
65045;SDS011;54657;52.022;5.534;2022-11-20T01:06:16;8.15;;;6.20;;
65045;SDS011;54657;52.022;5.534;2022-11-20T01:08:47;9.43;;;6.57;;
65045;SDS011;54657;52.022;5.534;2022-11-20T01:11:15;9.93;;;5.97;;
65045;SDS011;54657;52.022;5.534;2022-11-20T01:13:45;9.40;;;6.57;;
65045;SDS011;54657;52.022;5.534;2022-11-20T01:16:13;11.98;;;6.97;;
65045;SDS011;54657;52.022;5.534;2022-11-20T01:18:47;12.82;;;7.57;;
65045;SDS011;54657;52.022;5.534;2022-11-20T01:21:17;12.15;;;7.18;;
65045;SDS011;54657;52.022;5.534;2022-11-20T01:23:48;12.55;;;7.38;;
65045;SDS011;54657;52.022;5.534;2022-11-20T01:26:15;12.80;;;6.85;;
65045;SDS011;54657;52.022;5.534;2022-11-20T01:28:51;10.88;;;6.72;;
65045;SDS011;54657;52.022;5.534;2022-11-20T01:33:49;9.38;;;5.93;;
65045;SDS011;54657;52.022;5.534;2022-11-20T01:36:17;10.10;;;6.53;;
65045;SDS011;54657;52.022;5.534;2022-11-20T01:38:44;11.40;;;7.07;;
65045;SDS011;54657;52.022;5.534;2022-11-20T01:41:10;10.98;;;6.93;;
65045;SDS011;54657;52.022;5.534;2022-11-20T01:43:57;10.00;;;7.03;;
65045;SDS011;54657;52.022;5.534;2022-11-20T01:46:23;10.52;;;6.68;;
65045;SDS011;54657;52.022;5.534;2022-11-20T01:51:55;11.05;;;6.68;;
65045;SDS011;54657;52.022;5.534;2022-11-20T01:54:27;11.20;;;7.53;;
65045;SDS011;54657;52.022;5.534;2022-11-20T01:56:58;13.45;;;7.53;;
65045;SDS011;54657;52.022;5.534;2022-11-20T01:59:25;12.32;;;7.80;;
65045;SDS011;54657;52.022;5.534;2022-11-20T02:01:54;9.90;;;7.07;;
65045;SDS011;54657;52.022;5.534;2022-11-20T02:04:20;12.27;;;7.60;;
65045;SDS011;54657;52.022;5.534;2022-11-20T02:06:56;14.13;;;8.85;;
65045;SDS011;54657;52.022;5.534;2022-11-20T02:09:28;11.27;;;7.43;;
65045;SDS011;54657;52.022;5.534;2022-11-20T02:11:54;13.80;;;8.20;;
65045;SDS011;54657;52.022;5.534;2022-11-20T02:14:21;15.10;;;8.07;;
65045;SDS011;54657;52.022;5.534;2022-11-20T02:16:47;12.50;;;7.65;;
65045;SDS011;54657;52.022;5.534;2022-11-20T02:19:47;11.02;;;7.72;;
65045;SDS011;54657;52.022;5.534;2022-11-20T02:22:11;11.45;;;7.55;;
65045;SDS011;54657;52.022;5.534;2022-11-20T02:24:53;10.63;;;7.20;;
65045;SDS011;54657;52.022;5.534;2022-11-20T02:27:19;12.73;;;7.72;;
65045;SDS011;54657;52.022;5.534;2022-11-20T02:30:02;9.88;;;6.95;;
65045;SDS011;54657;52.022;5.534;2022-11-20T02:32:33;11.07;;;7.28;;
65045;SDS011;54657;52.022;5.534;2022-11-20T02:35:08;11.85;;;7.45;;
65045;SDS011;54657;52.022;5.534;2022-11-20T02:37:54;10.13;;;6.45;;
65045;SDS011;54657;52.022;5.534;2022-11-20T02:40:21;14.10;;;7.93;;
65045;SDS011;54657;52.022;5.534;2022-11-20T02:42:47;9.10;;;6.93;;
65045;SDS011;54657;52.022;5.534;2022-11-20T02:45:16;15.57;;;8.55;;
65045;SDS011;54657;52.022;5.534;2022-11-20T02:47:42;13.48;;;7.65;;
65045;SDS011;54657;52.022;5.534;2022-11-20T02:50:07;11.45;;;7.55;;
65045;SDS011;54657;52.022;5.534;2022-11-20T02:52:33;11.43;;;8.15;;
65045;SDS011;54657;52.022;5.534;2022-11-20T02:54:58;11.73;;;7.43;;
65045;SDS011;54657;52.022;5.534;2022-11-20T02:57:24;13.45;;;7.82;;
65045;SDS011;54657;52.022;5.534;2022-11-20T02:59:50;12.75;;;7.70;;
65045;SDS011;54657;52.022;5.534;2022-11-20T03:02:15;12.30;;;8.07;;
65045;SDS011;54657;52.022;5.534;2022-11-20T03:04:41;13.25;;;7.90;;
65045;SDS011;54657;52.022;5.534;2022-11-20T03:07:07;10.85;;;7.15;;
65045;SDS011;54657;52.022;5.534;2022-11-20T03:09:33;10.18;;;7.63;;
65045;SDS011;54657;52.022;5.534;2022-11-20T03:11:58;12.05;;;8.02;;
65045;SDS011;54657;52.022;5.534;2022-11-20T03:14:24;11.30;;;7.65;;
65045;SDS011;54657;52.022;5.534;2022-11-20T03:16:49;10.02;;;7.03;;
65045;SDS011;54657;52.022;5.534;2022-11-20T03:19:15;15.52;;;8.40;;
65045;SDS011;54657;52.022;5.534;2022-11-20T03:21:41;13.52;;;7.70;;
65045;SDS011;54657;52.022;5.534;2022-11-20T03:24:06;10.82;;;7.93;;
65045;SDS011;54657;52.022;5.534;2022-11-20T03:26:32;11.75;;;7.32;;
65045;SDS011;54657;52.022;5.534;2022-11-20T03:28:59;11.35;;;7.22;;
65045;SDS011;54657;52.022;5.534;2022-11-20T03:31:30;12.23;;;7.93;;
65045;SDS011;54657;52.022;5.534;2022-11-20T03:33:59;14.52;;;7.60;;
65045;SDS011;54657;52.022;5.534;2022-11-20T03:36:26;15.45;;;7.80;;
65045;SDS011;54657;52.022;5.534;2022-11-20T03:38:52;15.63;;;8.20;;
65045;SDS011;54657;52.022;5.534;2022-11-20T03:41:20;13.77;;;7.43;;
65045;SDS011;54657;52.022;5.534;2022-11-20T03:43:54;10.75;;;6.88;;
65045;SDS011;54657;52.022;5.534;2022-11-20T03:46:21;12.02;;;7.68;;
65045;SDS011;54657;52.022;5.534;2022-11-20T03:48:47;12.50;;;8.35;;
65045;SDS011;54657;52.022;5.534;2022-11-20T03:51:20;13.80;;;7.68;;
65045;SDS011;54657;52.022;5.534;2022-11-20T03:53:48;13.00;;;7.57;;
65045;SDS011;54657;52.022;5.534;2022-11-20T03:56:15;11.07;;;7.55;;
65045;SDS011;54657;52.022;5.534;2022-11-20T03:58:43;12.30;;;7.40;;
65045;SDS011;54657;52.022;5.534;2022-11-20T04:01:13;13.35;;;8.45;;
65045;SDS011;54657;52.022;5.534;2022-11-20T04:03:46;15.77;;;8.70;;
65045;SDS011;54657;52.022;5.534;2022-11-20T04:06:13;12.27;;;8.02;;
65045;SDS011;54657;52.022;5.534;2022-11-20T04:08:40;11.85;;;7.88;;
65045;SDS011;54657;52.022;5.534;2022-11-20T04:13:38;12.50;;;8.17;;
65045;SDS011;54657;52.022;5.534;2022-11-20T04:16:04;12.50;;;7.30;;
65045;SDS011;54657;52.022;5.534;2022-11-20T04:18:31;10.48;;;7.55;;
65045;SDS011;54657;52.022;5.534;2022-11-20T04:20:57;10.73;;;8.13;;
65045;SDS011;54657;52.022;5.534;2022-11-20T04:23:23;11.98;;;7.03;;
65045;SDS011;54657;52.022;5.534;2022-11-20T04:25:49;12.55;;;7.10;;
65045;SDS011;54657;52.022;5.534;2022-11-20T04:28:15;11.65;;;7.43;;
65045;SDS011;54657;52.022;5.534;2022-11-20T04:30:40;9.93;;;7.55;;
65045;SDS011;54657;52.022;5.534;2022-11-20T04:33:06;12.82;;;7.88;;
65045;SDS011;54657;52.022;5.534;2022-11-20T04:35:35;11.70;;;8.02;;
65045;SDS011;54657;52.022;5.534;2022-11-20T04:38:01;11.75;;;7.40;;
65045;SDS011;54657;52.022;5.534;2022-11-20T04:40:27;10.35;;;7.68;;
65045;SDS011;54657;52.022;5.534;2022-11-20T04:42:53;11.65;;;7.50;;
65045;SDS011;54657;52.022;5.534;2022-11-20T04:45:19;11.55;;;7.88;;
65045;SDS011;54657;52.022;5.534;2022-11-20T04:47:45;11.82;;;7.57;;
65045;SDS011;54657;52.022;5.534;2022-11-20T04:50:10;11.77;;;7.45;;
65045;SDS011;54657;52.022;5.534;2022-11-20T04:52:36;12.30;;;7.95;;
65045;SDS011;54657;52.022;5.534;2022-11-20T04:55:02;10.60;;;7.55;;
65045;SDS011;54657;52.022;5.534;2022-11-20T04:57:27;11.43;;;7.35;;
65045;SDS011;54657;52.022;5.534;2022-11-20T04:59:53;11.32;;;7.85;;
65045;SDS011;54657;52.022;5.534;2022-11-20T05:02:18;13.68;;;8.23;;
65045;SDS011;54657;52.022;5.534;2022-11-20T05:04:44;10.35;;;7.57;;
65045;SDS011;54657;52.022;5.534;2022-11-20T05:07:10;12.85;;;7.65;;
65045;SDS011;54657;52.022;5.534;2022-11-20T05:09:35;11.35;;;7.47;;
65045;SDS011;54657;52.022;5.534;2022-11-20T05:12:01;13.25;;;8.07;;
65045;SDS011;54657;52.022;5.534;2022-11-20T05:14:27;11.68;;;7.70;;
65045;SDS011;54657;52.022;5.534;2022-11-20T05:16:52;13.77;;;7.68;;
65045;SDS011;54657;52.022;5.534;2022-11-20T05:19:18;11.95;;;7.43;;
65045;SDS011;54657;52.022;5.534;2022-11-20T05:21:43;14.68;;;8.48;;
65045;SDS011;54657;52.022;5.534;2022-11-20T05:24:09;16.75;;;8.35;;
65045;SDS011;54657;52.022;5.534;2022-11-20T05:26:35;12.43;;;7.88;;
65045;SDS011;54657;52.022;5.534;2022-11-20T05:29:00;13.45;;;8.10;;
65045;SDS011;54657;52.022;5.534;2022-11-20T05:31:26;11.90;;;8.07;;
65045;SDS011;54657;52.022;5.534;2022-11-20T05:33:51;12.07;;;8.20;;
65045;SDS011;54657;52.022;5.534;2022-11-20T05:36:17;15.00;;;7.95;;
65045;SDS011;54657;52.022;5.534;2022-11-20T05:38:43;13.32;;;7.97;;
65045;SDS011;54657;52.022;5.534;2022-11-20T05:41:16;14.52;;;7.75;;
65045;SDS011;54657;52.022;5.534;2022-11-20T05:43:43;11.38;;;7.40;;
65045;SDS011;54657;52.022;5.534;2022-11-20T05:46:11;14.65;;;8.13;;
65045;SDS011;54657;52.022;5.534;2022-11-20T05:48:39;13.90;;;7.60;;
65045;SDS011;54657;52.022;5.534;2022-11-20T05:51:06;11.90;;;7.47;;
65045;SDS011;54657;52.022;5.534;2022-11-20T05:53:34;13.60;;;9.02;;
65045;SDS011;54657;52.022;5.534;2022-11-20T05:56:01;13.30;;;8.70;;
65045;SDS011;54657;52.022;5.534;2022-11-20T05:58:31;12.52;;;8.35;;
65045;SDS011;54657;52.022;5.534;2022-11-20T06:03:55;12.55;;;7.85;;
65045;SDS011;54657;52.022;5.534;2022-11-20T06:06:21;14.35;;;8.55;;
65045;SDS011;54657;52.022;5.534;2022-11-20T06:08:47;13.73;;;8.25;;
65045;SDS011;54657;52.022;5.534;2022-11-20T06:11:13;12.98;;;8.45;;
65045;SDS011;54657;52.022;5.534;2022-11-20T06:13:40;13.70;;;8.05;;
65045;SDS011;54657;52.022;5.534;2022-11-20T06:16:06;13.52;;;8.07;;
65045;SDS011;54657;52.022;5.534;2022-11-20T06:18:32;15.07;;;8.30;;
65045;SDS011;54657;52.022;5.534;2022-11-20T06:21:14;12.50;;;8.20;;
65045;SDS011;54657;52.022;5.534;2022-11-20T06:23:41;12.55;;;8.25;;
65045;SDS011;54657;52.022;5.534;2022-11-20T06:26:08;11.57;;;7.53;;
65045;SDS011;54657;52.022;5.534;2022-11-20T06:28:38;12.43;;;8.82;;
65045;SDS011;54657;52.022;5.534;2022-11-20T06:31:04;10.85;;;7.63;;
65045;SDS011;54657;52.022;5.534;2022-11-20T06:33:31;11.60;;;7.57;;
65045;SDS011;54657;52.022;5.534;2022-11-20T06:35:58;13.30;;;7.22;;
65045;SDS011;54657;52.022;5.534;2022-11-20T06:38:25;10.60;;;7.20;;
65045;SDS011;54657;52.022;5.534;2022-11-20T06:40:51;11.27;;;7.43;;
65045;SDS011;54657;52.022;5.534;2022-11-20T06:43:17;12.27;;;7.25;;
65045;SDS011;54657;52.022;5.534;2022-11-20T06:45:42;10.85;;;7.10;;
65045;SDS011;54657;52.022;5.534;2022-11-20T06:48:08;14.13;;;7.80;;
65045;SDS011;54657;52.022;5.534;2022-11-20T06:50:34;14.05;;;7.95;;
65045;SDS011;54657;52.022;5.534;2022-11-20T06:53:01;10.88;;;7.53;;
65045;SDS011;54657;52.022;5.534;2022-11-20T06:55:28;12.00;;;7.03;;
65045;SDS011;54657;52.022;5.534;2022-11-20T06:57:54;11.60;;;7.65;;
65045;SDS011;54657;52.022;5.534;2022-11-20T07:00:20;15.00;;;8.07;;
65045;SDS011;54657;52.022;5.534;2022-11-20T07:02:45;14.88;;;9.00;;
65045;SDS011;54657;52.022;5.534;2022-11-20T07:05:11;12.52;;;8.95;;
65045;SDS011;54657;52.022;5.534;2022-11-20T07:07:36;14.52;;;8.15;;
65045;SDS011;54657;52.022;5.534;2022-11-20T07:10:02;12.52;;;8.23;;
65045;SDS011;54657;52.022;5.534;2022-11-20T07:12:29;16.70;;;8.32;;
65045;SDS011;54657;52.022;5.534;2022-11-20T07:14:54;12.15;;;8.75;;
65045;SDS011;54657;52.022;5.534;2022-11-20T07:17:20;13.65;;;8.30;;
65045;SDS011;54657;52.022;5.534;2022-11-20T07:19:45;11.73;;;8.40;;
65045;SDS011;54657;52.022;5.534;2022-11-20T07:22:11;12.30;;;8.98;;
65045;SDS011;54657;52.022;5.534;2022-11-20T07:24:36;14.60;;;8.02;;
65045;SDS011;54657;52.022;5.534;2022-11-20T07:27:02;13.68;;;8.80;;
65045;SDS011;54657;52.022;5.534;2022-11-20T07:29:28;14.65;;;9.02;;
65045;SDS011;54657;52.022;5.534;2022-11-20T07:31:54;13.75;;;8.77;;
65045;SDS011;54657;52.022;5.534;2022-11-20T07:34:21;13.52;;;9.40;;
65045;SDS011;54657;52.022;5.534;2022-11-20T07:36:46;13.25;;;9.23;;
65045;SDS011;54657;52.022;5.534;2022-11-20T07:39:12;14.85;;;9.20;;
65045;SDS011;54657;52.022;5.534;2022-11-20T07:41:37;13.82;;;8.70;;
65045;SDS011;54657;52.022;5.534;2022-11-20T07:44:03;12.57;;;8.82;;
65045;SDS011;54657;52.022;5.534;2022-11-20T07:46:28;17.58;;;9.68;;
65045;SDS011;54657;52.022;5.534;2022-11-20T07:48:54;18.23;;;9.50;;
65045;SDS011;54657;52.022;5.534;2022-11-20T07:51:20;15.07;;;9.73;;
65045;SDS011;54657;52.022;5.534;2022-11-20T07:53:45;17.83;;;9.23;;
65045;SDS011;54657;52.022;5.534;2022-11-20T07:56:11;17.52;;;10.55;;
65045;SDS011;54657;52.022;5.534;2022-11-20T07:58:36;17.23;;;9.25;;
65045;SDS011;54657;52.022;5.534;2022-11-20T08:01:11;15.57;;;9.23;;
65045;SDS011;54657;52.022;5.534;2022-11-20T08:03:36;12.60;;;9.35;;
65045;SDS011;54657;52.022;5.534;2022-11-20T08:06:05;13.20;;;9.40;;
65045;SDS011;54657;52.022;5.534;2022-11-20T08:08:31;18.73;;;9.80;;
65045;SDS011;54657;52.022;5.534;2022-11-20T08:10:56;15.55;;;9.60;;
65045;SDS011;54657;52.022;5.534;2022-11-20T08:13:42;15.75;;;10.80;;
65045;SDS011;54657;52.022;5.534;2022-11-20T08:16:27;19.33;;;10.93;;
65045;SDS011;54657;52.022;5.534;2022-11-20T08:18:53;16.98;;;9.43;;
65045;SDS011;54657;52.022;5.534;2022-11-20T08:21:19;17.40;;;9.68;;
65045;SDS011;54657;52.022;5.534;2022-11-20T08:23:44;32.90;;;16.27;;
65045;SDS011;54657;52.022;5.534;2022-11-20T08:26:10;15.25;;;9.40;;
65045;SDS011;54657;52.022;5.534;2022-11-20T08:28:35;14.48;;;9.80;;
65045;SDS011;54657;52.022;5.534;2022-11-20T08:31:01;13.32;;;9.05;;
65045;SDS011;54657;52.022;5.534;2022-11-20T08:33:27;15.23;;;9.82;;
65045;SDS011;54657;52.022;5.534;2022-11-20T08:35:57;20.35;;;9.30;;
65045;SDS011;54657;52.022;5.534;2022-11-20T08:38:24;15.38;;;9.80;;
65045;SDS011;54657;52.022;5.534;2022-11-20T08:40:50;14.85;;;9.85;;
65045;SDS011;54657;52.022;5.534;2022-11-20T08:43:34;13.75;;;9.55;;
65045;SDS011;54657;52.022;5.534;2022-11-20T08:45:59;12.93;;;9.38;;
65045;SDS011;54657;52.022;5.534;2022-11-20T08:48:25;15.75;;;9.93;;
65045;SDS011;54657;52.022;5.534;2022-11-20T08:50:51;18.52;;;10.40;;
65045;SDS011;54657;52.022;5.534;2022-11-20T08:53:16;20.13;;;10.63;;
65045;SDS011;54657;52.022;5.534;2022-11-20T08:55:42;16.70;;;10.50;;
65045;SDS011;54657;52.022;5.534;2022-11-20T08:58:07;19.83;;;10.68;;
65045;SDS011;54657;52.022;5.534;2022-11-20T09:00:33;17.85;;;10.65;;
65045;SDS011;54657;52.022;5.534;2022-11-20T09:02:59;17.33;;;10.00;;
65045;SDS011;54657;52.022;5.534;2022-11-20T09:05:26;17.77;;;11.05;;
65045;SDS011;54657;52.022;5.534;2022-11-20T09:07:51;18.67;;;11.30;;
65045;SDS011;54657;52.022;5.534;2022-11-20T09:10:20;19.63;;;11.30;;
65045;SDS011;54657;52.022;5.534;2022-11-20T09:12:48;17.50;;;10.65;;
65045;SDS011;54657;52.022;5.534;2022-11-20T09:15:14;16.13;;;10.98;;
65045;SDS011;54657;52.022;5.534;2022-11-20T09:17:40;16.38;;;10.25;;
65045;SDS011;54657;52.022;5.534;2022-11-20T09:20:05;14.50;;;10.25;;
65045;SDS011;54657;52.022;5.534;2022-11-20T09:22:31;16.63;;;10.70;;
65045;SDS011;54657;52.022;5.534;2022-11-20T09:24:57;19.17;;;10.80;;
65045;SDS011;54657;52.022;5.534;2022-11-20T09:27:23;15.48;;;10.85;;
65045;SDS011;54657;52.022;5.534;2022-11-20T09:29:48;17.15;;;10.15;;
65045;SDS011;54657;52.022;5.534;2022-11-20T09:32:14;15.40;;;10.38;;
65045;SDS011;54657;52.022;5.534;2022-11-20T09:34:39;17.33;;;10.98;;
65045;SDS011;54657;52.022;5.534;2022-11-20T09:37:05;17.00;;;10.98;;
65045;SDS011;54657;52.022;5.534;2022-11-20T09:39:31;17.80;;;11.45;;
65045;SDS011;54657;52.022;5.534;2022-11-20T09:42:10;17.02;;;10.10;;
65045;SDS011;54657;52.022;5.534;2022-11-20T09:47:32;17.73;;;10.05;;
65045;SDS011;54657;52.022;5.534;2022-11-20T09:53:04;16.50;;;10.80;;
65045;SDS011;54657;52.022;5.534;2022-11-20T09:55:41;20.13;;;11.48;;
65045;SDS011;54657;52.022;5.534;2022-11-20T09:58:07;17.88;;;11.70;;
65045;SDS011;54657;52.022;5.534;2022-11-20T10:00:48;19.27;;;11.18;;
65045;SDS011;54657;52.022;5.534;2022-11-20T10:03:26;22.88;;;11.88;;
65045;SDS011;54657;52.022;5.534;2022-11-20T10:06:02;18.75;;;11.73;;
65045;SDS011;54657;52.022;5.534;2022-11-20T10:08:28;18.80;;;12.13;;
65045;SDS011;54657;52.022;5.534;2022-11-20T10:14:08;18.92;;;11.88;;
65045;SDS011;54657;52.022;5.534;2022-11-20T10:19:29;19.65;;;12.50;;
65045;SDS011;54657;52.022;5.534;2022-11-20T10:24:48;23.00;;;12.98;;
65045;SDS011;54657;52.022;5.534;2022-11-20T10:27:44;18.50;;;12.25;;
65045;SDS011;54657;52.022;5.534;2022-11-20T10:30:34;19.38;;;12.63;;
65045;SDS011;54657;52.022;5.534;2022-11-20T10:33:06;19.98;;;12.65;;
65045;SDS011;54657;52.022;5.534;2022-11-20T10:35:50;18.23;;;11.73;;
65045;SDS011;54657;52.022;5.534;2022-11-20T10:38:40;20.15;;;12.15;;
65045;SDS011;54657;52.022;5.534;2022-11-20T10:41:11;20.05;;;12.65;;
65045;SDS011;54657;52.022;5.534;2022-11-20T10:44:33;19.55;;;13.48;;
65045;SDS011;54657;52.022;5.534;2022-11-20T10:47:03;21.88;;;13.05;;
65045;SDS011;54657;52.022;5.534;2022-11-20T10:49:30;18.80;;;12.48;;
65045;SDS011;54657;52.022;5.534;2022-11-20T10:54:49;24.25;;;14.07;;
65045;SDS011;54657;52.022;5.534;2022-11-20T10:57:31;19.50;;;13.48;;
65045;SDS011;54657;52.022;5.534;2022-11-20T11:00:15;17.40;;;12.68;;
65045;SDS011;54657;52.022;5.534;2022-11-20T11:02:47;19.95;;;13.48;;
65045;SDS011;54657;52.022;5.534;2022-11-20T11:07:45;23.15;;;14.32;;
65045;SDS011;54657;52.022;5.534;2022-11-20T11:10:16;24.02;;;14.23;;
65045;SDS011;54657;52.022;5.534;2022-11-20T11:12:46;22.85;;;14.85;;
65045;SDS011;54657;52.022;5.534;2022-11-20T11:15:58;22.40;;;13.70;;
65045;SDS011;54657;52.022;5.534;2022-11-20T11:18:02;23.98;;;14.50;;
65045;SDS011;54657;52.022;5.534;2022-11-20T11:20:28;19.17;;;13.30;;
65045;SDS011;54657;52.022;5.534;2022-11-20T11:22:58;22.23;;;13.65;;
65045;SDS011;54657;52.022;5.534;2022-11-20T11:25:28;23.10;;;13.95;;
65045;SDS011;54657;52.022;5.534;2022-11-20T11:27:55;19.50;;;12.90;;
65045;SDS011;54657;52.022;5.534;2022-11-20T11:30:24;22.05;;;13.77;;
65045;SDS011;54657;52.022;5.534;2022-11-20T11:32:51;23.10;;;14.65;;
65045;SDS011;54657;52.022;5.534;2022-11-20T11:35:31;22.77;;;13.68;;
65045;SDS011;54657;52.022;5.534;2022-11-20T11:38:02;24.23;;;15.10;;
65045;SDS011;54657;52.022;5.534;2022-11-20T11:40:32;22.40;;;14.02;;
65045;SDS011;54657;52.022;5.534;2022-11-20T11:43:01;23.25;;;14.57;;
65045;SDS011;54657;52.022;5.534;2022-11-20T11:45:30;27.90;;;16.85;;
65045;SDS011;54657;52.022;5.534;2022-11-20T11:47:56;27.50;;;16.40;;
65045;SDS011;54657;52.022;5.534;2022-11-20T11:50:25;22.08;;;13.23;;
65045;SDS011;54657;52.022;5.534;2022-11-20T11:53:09;22.02;;;13.90;;
65045;SDS011;54657;52.022;5.534;2022-11-20T11:55:40;18.65;;;13.00;;
65045;SDS011;54657;52.022;5.534;2022-11-20T12:01:00;19.58;;;12.90;;
65045;SDS011;54657;52.022;5.534;2022-11-20T12:03:37;21.77;;;13.60;;
65045;SDS011;54657;52.022;5.534;2022-11-20T12:06:09;19.95;;;13.65;;
65045;SDS011;54657;52.022;5.534;2022-11-20T12:08:42;22.38;;;13.65;;
65045;SDS011;54657;52.022;5.534;2022-11-20T12:11:29;23.57;;;14.00;;
65045;SDS011;54657;52.022;5.534;2022-11-20T12:14:07;25.33;;;13.85;;
65045;SDS011;54657;52.022;5.534;2022-11-20T12:16:57;22.80;;;13.45;;
65045;SDS011;54657;52.022;5.534;2022-11-20T12:19:22;21.05;;;13.57;;
65045;SDS011;54657;52.022;5.534;2022-11-20T12:24:42;18.73;;;12.52;;
65045;SDS011;54657;52.022;5.534;2022-11-20T12:30:06;26.13;;;13.82;;
65045;SDS011;54657;52.022;5.534;2022-11-20T12:41:03;20.50;;;13.50;;
65045;SDS011;54657;52.022;5.534;2022-11-20T12:47:00;23.48;;;14.48;;
65045;SDS011;54657;52.022;5.534;2022-11-20T12:49:57;20.48;;;13.65;;
65045;SDS011;54657;52.022;5.534;2022-11-20T12:52:52;19.75;;;13.52;;
65045;SDS011;54657;52.022;5.534;2022-11-20T12:55:42;20.30;;;13.10;;
65045;SDS011;54657;52.022;5.534;2022-11-20T12:58:27;20.05;;;13.27;;
65045;SDS011;54657;52.022;5.534;2022-11-20T13:04:47;20.77;;;13.57;;
65045;SDS011;54657;52.022;5.534;2022-11-20T13:07:23;19.40;;;12.70;;
65045;SDS011;54657;52.022;5.534;2022-11-20T13:09:49;21.45;;;13.25;;
65045;SDS011;54657;52.022;5.534;2022-11-20T13:20:25;23.60;;;15.00;;
65045;SDS011;54657;52.022;5.534;2022-11-20T13:22:53;23.13;;;14.07;;
65045;SDS011;54657;52.022;5.534;2022-11-20T13:27:55;20.35;;;13.68;;
65045;SDS011;54657;52.022;5.534;2022-11-20T13:30:22;24.05;;;14.85;;
65045;SDS011;54657;52.022;5.534;2022-11-20T13:35:25;22.90;;;14.45;;
65045;SDS011;54657;52.022;5.534;2022-11-20T13:38:00;24.95;;;14.32;;
65045;SDS011;54657;52.022;5.534;2022-11-20T13:40:27;23.05;;;14.05;;
65045;SDS011;54657;52.022;5.534;2022-11-20T13:45:57;22.23;;;13.95;;
65045;SDS011;54657;52.022;5.534;2022-11-20T13:48:40;26.15;;;14.45;;
65045;SDS011;54657;52.022;5.534;2022-11-20T14:02:20;24.98;;;14.27;;
65045;SDS011;54657;52.022;5.534;2022-11-20T14:04:48;27.58;;;14.68;;
65045;SDS011;54657;52.022;5.534;2022-11-20T14:07:16;23.83;;;14.05;;
65045;SDS011;54657;52.022;5.534;2022-11-20T14:09:54;26.33;;;13.77;;
65045;SDS011;54657;52.022;5.534;2022-11-20T14:12:28;23.17;;;13.93;;
65045;SDS011;54657;52.022;5.534;2022-11-20T14:14:56;25.90;;;15.23;;
65045;SDS011;54657;52.022;5.534;2022-11-20T14:19:48;25.08;;;14.75;;
65045;SDS011;54657;52.022;5.534;2022-11-20T14:22:17;22.75;;;13.68;;
65045;SDS011;54657;52.022;5.534;2022-11-20T14:24:48;27.73;;;14.95;;
65045;SDS011;54657;52.022;5.534;2022-11-20T14:27:25;26.15;;;14.98;;
65045;SDS011;54657;52.022;5.534;2022-11-20T14:29:51;21.48;;;13.90;;
65045;SDS011;54657;52.022;5.534;2022-11-20T14:32:17;24.98;;;15.10;;
65045;SDS011;54657;52.022;5.534;2022-11-20T14:34:45;22.02;;;14.45;;
65045;SDS011;54657;52.022;5.534;2022-11-20T14:37:13;24.88;;;14.73;;
65045;SDS011;54657;52.022;5.534;2022-11-20T14:39:50;23.10;;;13.90;;
65045;SDS011;54657;52.022;5.534;2022-11-20T14:42:21;24.40;;;14.35;;
65045;SDS011;54657;52.022;5.534;2022-11-20T14:44:48;24.00;;;14.40;;
65045;SDS011;54657;52.022;5.534;2022-11-20T14:47:17;22.77;;;14.13;;
65045;SDS011;54657;52.022;5.534;2022-11-20T14:49:45;25.70;;;14.88;;
65045;SDS011;54657;52.022;5.534;2022-11-20T14:52:22;23.65;;;15.20;;
65045;SDS011;54657;52.022;5.534;2022-11-20T14:57:24;23.38;;;14.70;;
65045;SDS011;54657;52.022;5.534;2022-11-20T14:59:50;26.85;;;17.35;;
65045;SDS011;54657;52.022;5.534;2022-11-20T15:02:16;29.13;;;18.15;;
65045;SDS011;54657;52.022;5.534;2022-11-20T15:04:48;31.80;;;18.50;;
65045;SDS011;54657;52.022;5.534;2022-11-20T15:07:29;51.67;;;31.20;;
65045;SDS011;54657;52.022;5.534;2022-11-20T15:10:00;56.15;;;31.20;;
65045;SDS011;54657;52.022;5.534;2022-11-20T15:12:26;43.67;;;22.70;;
65045;SDS011;54657;52.022;5.534;2022-11-20T15:14:52;26.38;;;16.48;;
65045;SDS011;54657;52.022;5.534;2022-11-20T15:17:18;31.15;;;18.48;;
65045;SDS011;54657;52.022;5.534;2022-11-20T15:19:43;35.95;;;19.88;;
65045;SDS011;54657;52.022;5.534;2022-11-20T15:22:10;29.33;;;16.83;;
65045;SDS011;54657;52.022;5.534;2022-11-20T15:24:43;23.92;;;15.55;;
65045;SDS011;54657;52.022;5.534;2022-11-20T15:27:09;27.38;;;16.55;;
65045;SDS011;54657;52.022;5.534;2022-11-20T15:29:35;28.48;;;18.30;;
65045;SDS011;54657;52.022;5.534;2022-11-20T15:32:01;32.10;;;20.83;;
65045;SDS011;54657;52.022;5.534;2022-11-20T15:34:26;29.10;;;18.38;;
65045;SDS011;54657;52.022;5.534;2022-11-20T15:36:52;35.95;;;21.48;;
65045;SDS011;54657;52.022;5.534;2022-11-20T15:39:19;30.63;;;17.75;;
65045;SDS011;54657;52.022;5.534;2022-11-20T15:41:45;30.80;;;18.58;;
65045;SDS011;54657;52.022;5.534;2022-11-20T15:44:11;31.55;;;18.98;;
65045;SDS011;54657;52.022;5.534;2022-11-20T15:46:37;28.45;;;17.02;;
65045;SDS011;54657;52.022;5.534;2022-11-20T15:51:47;31.10;;;18.37;;
65045;SDS011;54657;52.022;5.534;2022-11-20T15:54:17;28.85;;;17.55;;
65045;SDS011;54657;52.022;5.534;2022-11-20T15:56:45;32.15;;;16.90;;
65045;SDS011;54657;52.022;5.534;2022-11-20T15:59:11;30.77;;;16.40;;
65045;SDS011;54657;52.022;5.534;2022-11-20T16:01:39;28.70;;;17.17;;
65045;SDS011;54657;52.022;5.534;2022-11-20T16:04:09;28.00;;;16.73;;
65045;SDS011;54657;52.022;5.534;2022-11-20T16:06:36;34.20;;;16.75;;
65045;SDS011;54657;52.022;5.534;2022-11-20T16:09:02;29.20;;;17.48;;